sensor_id;sensor_type;location;lat;lon;timestamp;temperature;humidity
12922;DHT22;6528;48.086;16.282;2023-03-01T00:00:14;22.30;1.00
12922;DHT22;6528;48.086;16.282;2023-03-01T00:02:41;22.30;1.00
12922;DHT22;6528;48.086;16.282;2023-03-01T00:05:08;22.30;1.00
12922;DHT22;6528;48.086;16.282;2023-03-01T00:07:35;22.30;1.00
12922;DHT22;6528;48.086;16.282;2023-03-01T00:10:01;22.30;1.00
12922;DHT22;6528;48.086;16.282;2023-03-01T00:12:28;22.30;1.00
12922;DHT22;6528;48.086;16.282;2023-03-01T00:14:55;22.30;1.00
12922;DHT22;6528;48.086;16.282;2023-03-01T00:17:22;22.30;1.00
12922;DHT22;6528;48.086;16.282;2023-03-01T00:19:48;22.30;1.00
12922;DHT22;6528;48.086;16.282;2023-03-01T00:22:16;22.30;1.00
12922;DHT22;6528;48.086;16.282;2023-03-01T00:24:43;22.30;1.00
12922;DHT22;6528;48.086;16.282;2023-03-01T00:27:09;22.30;1.00
12922;DHT22;6528;48.086;16.282;2023-03-01T00:29:36;22.30;1.00
12922;DHT22;6528;48.086;16.282;2023-03-01T00:32:03;22.30;1.00
12922;DHT22;6528;48.086;16.282;2023-03-01T00:34:30;22.30;1.00
12922;DHT22;6528;48.086;16.282;2023-03-01T00:36:56;22.30;1.00
12922;DHT22;6528;48.086;16.282;2023-03-01T00:39:32;22.30;1.00
12922;DHT22;6528;48.086;16.282;2023-03-01T00:41:59;22.30;1.00
12922;DHT22;6528;48.086;16.282;2023-03-01T00:44:26;22.30;1.00
12922;DHT22;6528;48.086;16.282;2023-03-01T00:46:54;22.30;1.00
12922;DHT22;6528;48.086;16.282;2023-03-01T00:49:21;22.30;14.00
12922;DHT22;6528;48.086;16.282;2023-03-01T00:51:50;22.30;1.10
12922;DHT22;6528;48.086;16.282;2023-03-01T00:54:17;22.30;1.80
12922;DHT22;6528;48.086;16.282;2023-03-01T00:56:44;22.30;2.40
12922;DHT22;6528;48.086;16.282;2023-03-01T00:59:10;22.30;3.90
12922;DHT22;6528;48.086;16.282;2023-03-01T01:01:37;22.30;3.40
12922;DHT22;6528;48.086;16.282;2023-03-01T01:04:06;22.30;4.10
12922;DHT22;6528;48.086;16.282;2023-03-01T01:06:38;22.30;5.00
12922;DHT22;6528;48.086;16.282;2023-03-01T01:09:07;22.30;4.80
12922;DHT22;6528;48.086;16.282;2023-03-01T01:11:34;22.30;5.80
12922;DHT22;6528;48.086;16.282;2023-03-01T01:14:03;22.40;6.50
12922;DHT22;6528;48.086;16.282;2023-03-01T01:16:30;22.30;6.70
12922;DHT22;6528;48.086;16.282;2023-03-01T01:18:58;22.30;7.30
12922;DHT22;6528;48.086;16.282;2023-03-01T01:21:25;22.30;8.10
12922;DHT22;6528;48.086;16.282;2023-03-01T01:23:53;22.30;7.80
12922;DHT22;6528;48.086;16.282;2023-03-01T01:26:23;22.30;8.70
12922;DHT22;6528;48.086;16.282;2023-03-01T01:28:51;22.30;9.30
12922;DHT22;6528;48.086;16.282;2023-03-01T01:31:18;22.30;9.50
12922;DHT22;6528;48.086;16.282;2023-03-01T01:33:46;22.30;9.80
12922;DHT22;6528;48.086;16.282;2023-03-01T01:36:13;22.40;10.60
12922;DHT22;6528;48.086;16.282;2023-03-01T01:38:40;22.30;10.40
12922;DHT22;6528;48.086;16.282;2023-03-01T01:41:10;22.30;11.00
12922;DHT22;6528;48.086;16.282;2023-03-01T01:43:43;22.30;11.80
12922;DHT22;6528;48.086;16.282;2023-03-01T01:46:28;22.40;12.40
12922;DHT22;6528;48.086;16.282;2023-03-01T01:49:22;22.30;12.30
12922;DHT22;6528;48.086;16.282;2023-03-01T01:51:56;22.30;13.10
12922;DHT22;6528;48.086;16.282;2023-03-01T01:54:28;22.30;12.90
12922;DHT22;6528;48.086;16.282;2023-03-01T01:56:59;22.30;13.30
12922;DHT22;6528;48.086;16.282;2023-03-01T01:59:28;22.30;14.70
12922;DHT22;6528;48.086;16.282;2023-03-01T02:01:58;22.30;14.60
12922;DHT22;6528;48.086;16.282;2023-03-01T02:04:26;22.30;14.70
12922;DHT22;6528;48.086;16.282;2023-03-01T02:09:55;22.30;16.00
12922;DHT22;6528;48.086;16.282;2023-03-01T02:12:24;22.30;16.20
12922;DHT22;6528;48.086;16.282;2023-03-01T02:14:51;22.30;16.80
12922;DHT22;6528;48.086;16.282;2023-03-01T02:17:18;22.40;16.90
12922;DHT22;6528;48.086;16.282;2023-03-01T02:22:35;22.30;18.00
12922;DHT22;6528;48.086;16.282;2023-03-01T02:30:25;22.30;18.90
12922;DHT22;6528;48.086;16.282;2023-03-01T02:32:53;22.30;19.50
12922;DHT22;6528;48.086;16.282;2023-03-01T02:35:23;22.30;33.90
12922;DHT22;6528;48.086;16.282;2023-03-01T02:37:50;22.30;19.80
12922;DHT22;6528;48.086;16.282;2023-03-01T02:40:18;22.30;20.30
12922;DHT22;6528;48.086;16.282;2023-03-01T02:42:52;22.40;20.60
12922;DHT22;6528;48.086;16.282;2023-03-01T02:45:20;22.30;21.40
12922;DHT22;6528;48.086;16.282;2023-03-01T02:47:47;22.30;21.80
12922;DHT22;6528;48.086;16.282;2023-03-01T02:53:05;22.30;21.90
12922;DHT22;6528;48.086;16.282;2023-03-01T02:55:34;22.40;22.60
12922;DHT22;6528;48.086;16.282;2023-03-01T02:58:02;22.30;22.50
12922;DHT22;6528;48.086;16.282;2023-03-01T03:17:12;22.30;24.00
12922;DHT22;6528;48.086;16.282;2023-03-01T03:19:38;22.30;23.40
12922;DHT22;6528;48.086;16.282;2023-03-01T03:22:05;22.30;24.30
12922;DHT22;6528;48.086;16.282;2023-03-01T03:24:32;22.30;24.30
12922;DHT22;6528;48.086;16.282;2023-03-01T03:27:05;22.30;24.20
12922;DHT22;6528;48.086;16.282;2023-03-01T03:29:33;22.30;24.70
12922;DHT22;6528;48.086;16.282;2023-03-01T03:31:59;22.30;25.30
12922;DHT22;6528;48.086;16.282;2023-03-01T03:34:26;22.30;24.90
12922;DHT22;6528;48.086;16.282;2023-03-01T03:36:54;22.30;24.60
12922;DHT22;6528;48.086;16.282;2023-03-01T03:39:23;22.30;25.00
12922;DHT22;6528;48.086;16.282;2023-03-01T03:41:50;22.30;25.70
12922;DHT22;6528;48.086;16.282;2023-03-01T03:44:17;22.30;25.40
12922;DHT22;6528;48.086;16.282;2023-03-01T03:46:43;22.30;25.40
12922;DHT22;6528;48.086;16.282;2023-03-01T03:49:10;22.30;25.70
12922;DHT22;6528;48.086;16.282;2023-03-01T03:51:37;22.30;26.40
12922;DHT22;6528;48.086;16.282;2023-03-01T03:54:04;22.30;27.20
12922;DHT22;6528;48.086;16.282;2023-03-01T03:56:30;22.30;26.50
12922;DHT22;6528;48.086;16.282;2023-03-01T03:58:58;22.30;26.80
12922;DHT22;6528;48.086;16.282;2023-03-01T04:01:24;22.30;27.80
12922;DHT22;6528;48.086;16.282;2023-03-01T04:03:51;22.30;27.80
12922;DHT22;6528;48.086;16.282;2023-03-01T04:06:21;22.30;28.80
12922;DHT22;6528;48.086;16.282;2023-03-01T04:08:47;22.30;28.90
12922;DHT22;6528;48.086;16.282;2023-03-01T04:11:17;22.30;28.80
12922;DHT22;6528;48.086;16.282;2023-03-01T04:13:56;22.30;29.30
12922;DHT22;6528;48.086;16.282;2023-03-01T04:16:24;22.30;28.90
12922;DHT22;6528;48.086;16.282;2023-03-01T04:18:51;22.30;29.20
12922;DHT22;6528;48.086;16.282;2023-03-01T04:21:20;22.30;29.30
12922;DHT22;6528;48.086;16.282;2023-03-01T04:23:46;22.30;29.80
12922;DHT22;6528;48.086;16.282;2023-03-01T04:26:13;22.30;48.60
12922;DHT22;6528;48.086;16.282;2023-03-01T04:28:42;22.30;30.90
12922;DHT22;6528;48.086;16.282;2023-03-01T04:31:15;22.30;30.90
12922;DHT22;6528;48.086;16.282;2023-03-01T04:33:52;22.30;30.90
12922;DHT22;6528;48.086;16.282;2023-03-01T04:36:24;22.30;31.70
12922;DHT22;6528;48.086;16.282;2023-03-01T04:38:52;22.30;31.40
12922;DHT22;6528;48.086;16.282;2023-03-01T04:41:21;22.30;31.20
12922;DHT22;6528;48.086;16.282;2023-03-01T04:43:49;22.30;49.40
12922;DHT22;6528;48.086;16.282;2023-03-01T04:46:18;22.30;31.60
12922;DHT22;6528;48.086;16.282;2023-03-01T04:48:46;22.30;32.90
12922;DHT22;6528;48.086;16.282;2023-03-01T04:51:14;22.30;32.90
12922;DHT22;6528;48.086;16.282;2023-03-01T04:53:41;22.30;33.50
12922;DHT22;6528;48.086;16.282;2023-03-01T04:56:09;22.30;34.20
12922;DHT22;6528;48.086;16.282;2023-03-01T04:58:36;22.30;34.40
12922;DHT22;6528;48.086;16.282;2023-03-01T05:01:15;22.30;35.60
12922;DHT22;6528;48.086;16.282;2023-03-01T05:03:47;22.30;34.70
12922;DHT22;6528;48.086;16.282;2023-03-01T05:06:15;22.30;35.80
12922;DHT22;6528;48.086;16.282;2023-03-01T05:08:42;22.30;34.90
12922;DHT22;6528;48.086;16.282;2023-03-01T05:11:10;22.30;35.90
12922;DHT22;6528;48.086;16.282;2023-03-01T05:13:38;22.30;36.50
12922;DHT22;6528;48.086;16.282;2023-03-01T05:16:07;22.30;36.60
12922;DHT22;6528;48.086;16.282;2023-03-01T05:18:39;22.30;37.20
12922;DHT22;6528;48.086;16.282;2023-03-01T05:21:11;22.30;37.20
12922;DHT22;6528;48.086;16.282;2023-03-01T05:23:39;22.30;37.60
12922;DHT22;6528;48.086;16.282;2023-03-01T05:26:06;22.30;37.90
12922;DHT22;6528;48.086;16.282;2023-03-01T05:28:48;22.30;37.70
12922;DHT22;6528;48.086;16.282;2023-03-01T05:31:14;22.30;38.30
12922;DHT22;6528;48.086;16.282;2023-03-01T05:33:42;22.30;39.10
12922;DHT22;6528;48.086;16.282;2023-03-01T05:36:10;22.30;39.50
12922;DHT22;6528;48.086;16.282;2023-03-01T05:38:37;22.30;39.70
12922;DHT22;6528;48.086;16.282;2023-03-01T05:41:04;22.30;39.60
12922;DHT22;6528;48.086;16.282;2023-03-01T05:43:31;22.30;41.10
12922;DHT22;6528;48.086;16.282;2023-03-01T05:46:00;22.30;41.10
12922;DHT22;6528;48.086;16.282;2023-03-01T05:48:29;22.30;41.30
12922;DHT22;6528;48.086;16.282;2023-03-01T05:50:59;22.30;41.10
12922;DHT22;6528;48.086;16.282;2023-03-01T05:53:26;22.30;42.20
12922;DHT22;6528;48.086;16.282;2023-03-01T05:55:53;22.30;42.00
12922;DHT22;6528;48.086;16.282;2023-03-01T05:58:20;22.30;42.90
12922;DHT22;6528;48.086;16.282;2023-03-01T06:00:48;22.30;42.70
12922;DHT22;6528;48.086;16.282;2023-03-01T06:03:17;22.30;42.50
12922;DHT22;6528;48.086;16.282;2023-03-01T06:05:44;22.30;43.70
12922;DHT22;6528;48.086;16.282;2023-03-01T06:08:12;22.30;42.80
12922;DHT22;6528;48.086;16.282;2023-03-01T06:10:39;22.30;43.40
12922;DHT22;6528;48.086;16.282;2023-03-01T06:13:07;22.30;43.10
12922;DHT22;6528;48.086;16.282;2023-03-01T06:15:34;22.20;43.40
12922;DHT22;6528;48.086;16.282;2023-03-01T06:18:01;22.30;43.90
12922;DHT22;6528;48.086;16.282;2023-03-01T06:20:28;22.30;43.90
12922;DHT22;6528;48.086;16.282;2023-03-01T06:22:56;22.20;44.80
12922;DHT22;6528;48.086;16.282;2023-03-01T06:25:24;22.20;45.20
12922;DHT22;6528;48.086;16.282;2023-03-01T06:27:51;22.20;45.10
12922;DHT22;6528;48.086;16.282;2023-03-01T06:30:23;22.30;44.90
12922;DHT22;6528;48.086;16.282;2023-03-01T06:32:50;22.30;45.70
12922;DHT22;6528;48.086;16.282;2023-03-01T06:35:18;22.30;46.00
12922;DHT22;6528;48.086;16.282;2023-03-01T06:37:46;22.30;46.40
12922;DHT22;6528;48.086;16.282;2023-03-01T06:40:15;22.20;46.10
12922;DHT22;6528;48.086;16.282;2023-03-01T06:42:43;22.20;46.90
12922;DHT22;6528;48.086;16.282;2023-03-01T06:45:10;22.20;47.10
12922;DHT22;6528;48.086;16.282;2023-03-01T06:47:37;22.20;46.40
12922;DHT22;6528;48.086;16.282;2023-03-01T06:50:05;22.20;47.30
12922;DHT22;6528;48.086;16.282;2023-03-01T06:52:31;22.20;46.10
12922;DHT22;6528;48.086;16.282;2023-03-01T06:54:59;22.10;46.00
12922;DHT22;6528;48.086;16.282;2023-03-01T06:57:26;22.10;44.70
12922;DHT22;6528;48.086;16.282;2023-03-01T06:59:53;22.10;43.90
12922;DHT22;6528;48.086;16.282;2023-03-01T07:02:20;22.00;42.40
12922;DHT22;6528;48.086;16.282;2023-03-01T07:04:49;22.00;41.20
12922;DHT22;6528;48.086;16.282;2023-03-01T07:07:17;22.00;39.60
12922;DHT22;6528;48.086;16.282;2023-03-01T07:09:46;22.00;38.30
12922;DHT22;6528;48.086;16.282;2023-03-01T07:12:12;22.00;37.80
12922;DHT22;6528;48.086;16.282;2023-03-01T07:14:40;21.90;34.80
12922;DHT22;6528;48.086;16.282;2023-03-01T07:17:06;21.90;33.60
12922;DHT22;6528;48.086;16.282;2023-03-01T07:19:33;21.90;32.50
12922;DHT22;6528;48.086;16.282;2023-03-01T07:22:00;21.90;30.90
12922;DHT22;6528;48.086;16.282;2023-03-01T07:24:27;21.90;30.00
12922;DHT22;6528;48.086;16.282;2023-03-01T07:26:54;21.90;28.90
12922;DHT22;6528;48.086;16.282;2023-03-01T07:29:20;21.90;27.30
12922;DHT22;6528;48.086;16.282;2023-03-01T07:31:47;21.90;26.50
12922;DHT22;6528;48.086;16.282;2023-03-01T07:34:14;21.90;25.50
12922;DHT22;6528;48.086;16.282;2023-03-01T07:36:41;21.80;24.70
12922;DHT22;6528;48.086;16.282;2023-03-01T07:39:10;21.80;23.30
12922;DHT22;6528;48.086;16.282;2023-03-01T07:41:38;21.80;22.30
12922;DHT22;6528;48.086;16.282;2023-03-01T07:44:05;21.80;21.20
12922;DHT22;6528;48.086;16.282;2023-03-01T07:46:32;21.80;20.60
12922;DHT22;6528;48.086;16.282;2023-03-01T07:48:59;21.80;19.20
12922;DHT22;6528;48.086;16.282;2023-03-01T07:51:26;21.80;18.40
12922;DHT22;6528;48.086;16.282;2023-03-01T07:53:53;21.80;17.50
12922;DHT22;6528;48.086;16.282;2023-03-01T07:56:20;21.80;16.40
12922;DHT22;6528;48.086;16.282;2023-03-01T07:58:48;21.80;15.70
12922;DHT22;6528;48.086;16.282;2023-03-01T08:01:18;21.80;14.50
12922;DHT22;6528;48.086;16.282;2023-03-01T08:03:45;21.80;14.00
12922;DHT22;6528;48.086;16.282;2023-03-01T08:06:16;21.80;12.10
12922;DHT22;6528;48.086;16.282;2023-03-01T08:08:43;21.70;11.90
12922;DHT22;6528;48.086;16.282;2023-03-01T08:11:12;21.70;10.30
12922;DHT22;6528;48.086;16.282;2023-03-01T08:13:39;21.70;8.80
12922;DHT22;6528;48.086;16.282;2023-03-01T08:16:12;21.70;8.10
12922;DHT22;6528;48.086;16.282;2023-03-01T08:18:40;21.70;7.10
12922;DHT22;6528;48.086;16.282;2023-03-01T08:21:15;21.70;6.40
12922;DHT22;6528;48.086;16.282;2023-03-01T08:23:42;21.70;4.50
12922;DHT22;6528;48.086;16.282;2023-03-01T08:26:15;21.70;3.60
12922;DHT22;6528;48.086;16.282;2023-03-01T08:28:43;21.70;2.60
12922;DHT22;6528;48.086;16.282;2023-03-01T08:31:26;21.70;1.00
12922;DHT22;6528;48.086;16.282;2023-03-01T08:33:56;21.70;1.00
12922;DHT22;6528;48.086;16.282;2023-03-01T08:36:31;21.70;1.00
12922;DHT22;6528;48.086;16.282;2023-03-01T08:38:59;21.70;1.00
12922;DHT22;6528;48.086;16.282;2023-03-01T08:41:26;21.70;1.00
12922;DHT22;6528;48.086;16.282;2023-03-01T08:43:54;21.70;1.00
12922;DHT22;6528;48.086;16.282;2023-03-01T08:46:30;21.70;1.00
12922;DHT22;6528;48.086;16.282;2023-03-01T08:48:57;21.70;1.00
12922;DHT22;6528;48.086;16.282;2023-03-01T08:51:25;21.70;1.00
12922;DHT22;6528;48.086;16.282;2023-03-01T08:53:52;21.70;1.00
12922;DHT22;6528;48.086;16.282;2023-03-01T08:56:19;21.70;1.00
12922;DHT22;6528;48.086;16.282;2023-03-01T08:58:47;21.70;1.00
12922;DHT22;6528;48.086;16.282;2023-03-01T09:01:16;21.70;7.30
12922;DHT22;6528;48.086;16.282;2023-03-01T09:03:44;21.70;1.00
12922;DHT22;6528;48.086;16.282;2023-03-01T09:06:11;21.70;1.00
12922;DHT22;6528;48.086;16.282;2023-03-01T09:08:41;21.70;1.00
12922;DHT22;6528;48.086;16.282;2023-03-01T09:11:10;21.70;1.00
12922;DHT22;6528;48.086;16.282;2023-03-01T09:13:37;21.70;1.00
12922;DHT22;6528;48.086;16.282;2023-03-01T09:16:06;21.70;1.00
12922;DHT22;6528;48.086;16.282;2023-03-01T09:18:34;21.80;1.00
12922;DHT22;6528;48.086;16.282;2023-03-01T09:21:03;21.80;1.00
12922;DHT22;6528;48.086;16.282;2023-03-01T09:23:41;21.80;1.00
12922;DHT22;6528;48.086;16.282;2023-03-01T09:26:13;21.80;1.00
12922;DHT22;6528;48.086;16.282;2023-03-01T09:28:43;21.80;1.00
12922;DHT22;6528;48.086;16.282;2023-03-01T09:31:12;21.80;1.00
12922;DHT22;6528;48.086;16.282;2023-03-01T09:33:40;21.80;1.00
12922;DHT22;6528;48.086;16.282;2023-03-01T09:36:14;21.90;1.00
12922;DHT22;6528;48.086;16.282;2023-03-01T09:38:41;21.80;1.00
12922;DHT22;6528;48.086;16.282;2023-03-01T09:46:42;21.80;1.00
12922;DHT22;6528;48.086;16.282;2023-03-01T09:49:17;21.90;1.00
12922;DHT22;6528;48.086;16.282;2023-03-01T09:54:39;21.80;1.00
12922;DHT22;6528;48.086;16.282;2023-03-01T10:02:29;21.90;1.00
12922;DHT22;6528;48.086;16.282;2023-03-01T10:07:48;21.90;1.00
12922;DHT22;6528;48.086;16.282;2023-03-01T10:10:32;21.80;1.00
12922;DHT22;6528;48.086;16.282;2023-03-01T10:13:08;21.80;1.00
12922;DHT22;6528;48.086;16.282;2023-03-01T10:15:45;21.90;1.00
12922;DHT22;6528;48.086;16.282;2023-03-01T10:18:20;21.80;1.00
12922;DHT22;6528;48.086;16.282;2023-03-01T10:21:09;21.80;1.00
12922;DHT22;6528;48.086;16.282;2023-03-01T10:23:39;21.90;1.00
12922;DHT22;6528;48.086;16.282;2023-03-01T10:26:33;21.90;1.00
12922;DHT22;6528;48.086;16.282;2023-03-01T10:29:10;21.90;1.00
12922;DHT22;6528;48.086;16.282;2023-03-01T10:31:44;21.90;1.00
12922;DHT22;6528;48.086;16.282;2023-03-01T10:34:33;21.90;1.00
12922;DHT22;6528;48.086;16.282;2023-03-01T10:39:36;21.90;1.00
12922;DHT22;6528;48.086;16.282;2023-03-01T10:42:09;21.90;1.00
12922;DHT22;6528;48.086;16.282;2023-03-01T10:44:47;21.90;1.00
12922;DHT22;6528;48.086;16.282;2023-03-01T10:47:25;21.90;1.00
12922;DHT22;6528;48.086;16.282;2023-03-01T10:50:01;21.90;1.00
12922;DHT22;6528;48.086;16.282;2023-03-01T10:52:37;21.90;1.00
12922;DHT22;6528;48.086;16.282;2023-03-01T11:00:53;22.00;1.00
12922;DHT22;6528;48.086;16.282;2023-03-01T11:08:37;22.00;1.00
12922;DHT22;6528;48.086;16.282;2023-03-01T11:11:17;22.00;1.00
12922;DHT22;6528;48.086;16.282;2023-03-01T11:14:02;22.00;1.00
12922;DHT22;6528;48.086;16.282;2023-03-01T11:16:44;22.00;1.00
12922;DHT22;6528;48.086;16.282;2023-03-01T11:24:54;22.00;1.00
12922;DHT22;6528;48.086;16.282;2023-03-01T11:27:40;22.00;1.00
12922;DHT22;6528;48.086;16.282;2023-03-01T11:33:16;22.00;1.00
12922;DHT22;6528;48.086;16.282;2023-03-01T11:35:56;22.00;1.00
12922;DHT22;6528;48.086;16.282;2023-03-01T11:38:26;22.00;1.00
12922;DHT22;6528;48.086;16.282;2023-03-01T11:41:30;22.00;1.00
12922;DHT22;6528;48.086;16.282;2023-03-01T11:43:59;22.00;1.00
12922;DHT22;6528;48.086;16.282;2023-03-01T11:49:35;22.00;1.00
12922;DHT22;6528;48.086;16.282;2023-03-01T12:14:07;22.00;1.00
12922;DHT22;6528;48.086;16.282;2023-03-01T12:17:11;22.00;1.00
12922;DHT22;6528;48.086;16.282;2023-03-01T12:25:39;22.00;1.00
12922;DHT22;6528;48.086;16.282;2023-03-01T12:45:05;22.00;1.00
12922;DHT22;6528;48.086;16.282;2023-03-01T12:50:48;21.90;1.00
12922;DHT22;6528;48.086;16.282;2023-03-01T12:53:30;22.00;1.00
12922;DHT22;6528;48.086;16.282;2023-03-01T12:56:05;21.90;1.00
12922;DHT22;6528;48.086;16.282;2023-03-01T13:13:11;21.90;1.00
12922;DHT22;6528;48.086;16.282;2023-03-01T13:15:39;21.90;1.00
12922;DHT22;6528;48.086;16.282;2023-03-01T13:31:05;22.00;1.00
12922;DHT22;6528;48.086;16.282;2023-03-01T13:33:33;21.90;1.00
12922;DHT22;6528;48.086;16.282;2023-03-01T13:36:00;22.00;1.00
12922;DHT22;6528;48.086;16.282;2023-03-01T13:38:58;21.90;1.00
12922;DHT22;6528;48.086;16.282;2023-03-01T13:44:21;22.00;1.00
12922;DHT22;6528;48.086;16.282;2023-03-01T13:46:48;21.90;1.00
12922;DHT22;6528;48.086;16.282;2023-03-01T13:49:22;22.00;1.00
12922;DHT22;6528;48.086;16.282;2023-03-01T13:51:50;22.00;1.00
12922;DHT22;6528;48.086;16.282;2023-03-01T13:54:29;22.00;1.00
12922;DHT22;6528;48.086;16.282;2023-03-01T13:56:58;21.90;1.00
12922;DHT22;6528;48.086;16.282;2023-03-01T13:59:26;21.90;1.00
12922;DHT22;6528;48.086;16.282;2023-03-01T14:01:58;21.90;1.00
12922;DHT22;6528;48.086;16.282;2023-03-01T14:04:33;21.90;1.00
12922;DHT22;6528;48.086;16.282;2023-03-01T14:07:13;22.00;1.00
12922;DHT22;6528;48.086;16.282;2023-03-01T14:09:42;21.90;1.00
12922;DHT22;6528;48.086;16.282;2023-03-01T14:15:27;21.90;1.00
12922;DHT22;6528;48.086;16.282;2023-03-01T14:20:38;22.00;1.00
12922;DHT22;6528;48.086;16.282;2023-03-01T14:23:12;21.90;1.00
12922;DHT22;6528;48.086;16.282;2023-03-01T14:25:50;21.90;1.00
12922;DHT22;6528;48.086;16.282;2023-03-01T14:28:21;21.90;1.00
12922;DHT22;6528;48.086;16.282;2023-03-01T14:30:52;22.00;1.00
12922;DHT22;6528;48.086;16.282;2023-03-01T14:33:27;22.00;1.00
12922;DHT22;6528;48.086;16.282;2023-03-01T14:43:53;21.90;1.00
12922;DHT22;6528;48.086;16.282;2023-03-01T14:46:35;21.90;1.00
12922;DHT22;6528;48.086;16.282;2023-03-01T14:49:09;21.90;1.00
12922;DHT22;6528;48.086;16.282;2023-03-01T14:51:38;21.90;1.00
12922;DHT22;6528;48.086;16.282;2023-03-01T14:57:00;21.90;1.00
12922;DHT22;6528;48.086;16.282;2023-03-01T14:59:28;21.90;1.00
12922;DHT22;6528;48.086;16.282;2023-03-01T15:01:57;21.90;1.00
12922;DHT22;6528;48.086;16.282;2023-03-01T15:04:26;21.90;1.00
12922;DHT22;6528;48.086;16.282;2023-03-01T15:06:55;21.90;1.00
12922;DHT22;6528;48.086;16.282;2023-03-01T15:09:28;21.90;1.00
12922;DHT22;6528;48.086;16.282;2023-03-01T15:11:55;21.90;1.00
12922;DHT22;6528;48.086;16.282;2023-03-01T15:14:38;21.90;1.00
12922;DHT22;6528;48.086;16.282;2023-03-01T15:17:21;21.90;1.00
12922;DHT22;6528;48.086;16.282;2023-03-01T15:19:50;21.90;1.00
12922;DHT22;6528;48.086;16.282;2023-03-01T15:22:17;21.90;1.00
12922;DHT22;6528;48.086;16.282;2023-03-01T15:24:53;21.90;1.00
12922;DHT22;6528;48.086;16.282;2023-03-01T15:27:22;21.90;1.00
12922;DHT22;6528;48.086;16.282;2023-03-01T15:29:59;21.90;1.00
12922;DHT22;6528;48.086;16.282;2023-03-01T15:32:35;21.90;1.00
12922;DHT22;6528;48.086;16.282;2023-03-01T15:35:41;21.90;1.00
12922;DHT22;6528;48.086;16.282;2023-03-01T15:38:28;21.90;1.00
12922;DHT22;6528;48.086;16.282;2023-03-01T15:40:57;21.90;1.00
12922;DHT22;6528;48.086;16.282;2023-03-01T15:43:44;21.90;1.00
12922;DHT22;6528;48.086;16.282;2023-03-01T15:46:21;21.90;1.00
12922;DHT22;6528;48.086;16.282;2023-03-01T15:48:53;21.90;1.00
12922;DHT22;6528;48.086;16.282;2023-03-01T15:51:27;21.90;1.00
12922;DHT22;6528;48.086;16.282;2023-03-01T15:53:56;21.90;1.00
12922;DHT22;6528;48.086;16.282;2023-03-01T15:56:25;21.90;1.00
12922;DHT22;6528;48.086;16.282;2023-03-01T15:58:51;21.90;1.00
12922;DHT22;6528;48.086;16.282;2023-03-01T16:01:18;21.90;1.00
12922;DHT22;6528;48.086;16.282;2023-03-01T16:03:45;21.90;1.00
12922;DHT22;6528;48.086;16.282;2023-03-01T16:06:12;21.90;1.00
12922;DHT22;6528;48.086;16.282;2023-03-01T16:08:39;21.80;1.00
12922;DHT22;6528;48.086;16.282;2023-03-01T16:11:14;21.80;1.00
12922;DHT22;6528;48.086;16.282;2023-03-01T16:13:41;21.90;1.00
12922;DHT22;6528;48.086;16.282;2023-03-01T16:16:10;21.90;1.00
12922;DHT22;6528;48.086;16.282;2023-03-01T16:18:39;21.90;1.00
12922;DHT22;6528;48.086;16.282;2023-03-01T16:21:05;21.80;1.00
12922;DHT22;6528;48.086;16.282;2023-03-01T16:23:32;21.80;1.00
12922;DHT22;6528;48.086;16.282;2023-03-01T16:25:59;21.90;1.00
12922;DHT22;6528;48.086;16.282;2023-03-01T16:28:26;21.90;1.00
12922;DHT22;6528;48.086;16.282;2023-03-01T16:30:55;21.90;1.00
12922;DHT22;6528;48.086;16.282;2023-03-01T16:33:22;21.80;1.00
12922;DHT22;6528;48.086;16.282;2023-03-01T16:35:57;21.80;1.00
12922;DHT22;6528;48.086;16.282;2023-03-01T16:38:26;21.80;1.00
12922;DHT22;6528;48.086;16.282;2023-03-01T16:40:53;21.90;1.00
12922;DHT22;6528;48.086;16.282;2023-03-01T16:43:20;21.80;1.00
12922;DHT22;6528;48.086;16.282;2023-03-01T16:45:47;21.90;1.00
12922;DHT22;6528;48.086;16.282;2023-03-01T16:48:14;21.90;1.00
12922;DHT22;6528;48.086;16.282;2023-03-01T16:50:41;21.80;1.00
12922;DHT22;6528;48.086;16.282;2023-03-01T16:53:07;21.80;1.00
12922;DHT22;6528;48.086;16.282;2023-03-01T16:55:34;21.80;1.00
12922;DHT22;6528;48.086;16.282;2023-03-01T16:58:01;21.80;1.00
12922;DHT22;6528;48.086;16.282;2023-03-01T17:00:28;21.80;1.00
12922;DHT22;6528;48.086;16.282;2023-03-01T17:02:55;21.80;1.00
12922;DHT22;6528;48.086;16.282;2023-03-01T17:05:22;21.80;1.00
12922;DHT22;6528;48.086;16.282;2023-03-01T17:07:50;21.80;1.00
12922;DHT22;6528;48.086;16.282;2023-03-01T17:10:17;21.80;1.00
12922;DHT22;6528;48.086;16.282;2023-03-01T17:12:47;21.80;1.00
12922;DHT22;6528;48.086;16.282;2023-03-01T17:15:14;21.80;1.00
12922;DHT22;6528;48.086;16.282;2023-03-01T17:17:40;21.80;1.00
12922;DHT22;6528;48.086;16.282;2023-03-01T17:20:08;21.80;1.00
12922;DHT22;6528;48.086;16.282;2023-03-01T17:22:35;21.80;1.00
12922;DHT22;6528;48.086;16.282;2023-03-01T17:25:03;21.80;1.00
12922;DHT22;6528;48.086;16.282;2023-03-01T17:27:29;21.80;1.00
12922;DHT22;6528;48.086;16.282;2023-03-01T17:30:01;21.80;1.00
12922;DHT22;6528;48.086;16.282;2023-03-01T17:32:28;21.80;1.00
12922;DHT22;6528;48.086;16.282;2023-03-01T17:34:54;21.80;1.00
12922;DHT22;6528;48.086;16.282;2023-03-01T17:37:21;21.80;1.00
12922;DHT22;6528;48.086;16.282;2023-03-01T17:39:48;21.80;1.00
12922;DHT22;6528;48.086;16.282;2023-03-01T17:42:15;21.80;1.00
12922;DHT22;6528;48.086;16.282;2023-03-01T17:44:42;21.80;1.00
12922;DHT22;6528;48.086;16.282;2023-03-01T17:47:09;21.80;1.00
12922;DHT22;6528;48.086;16.282;2023-03-01T17:49:36;21.80;1.00
12922;DHT22;6528;48.086;16.282;2023-03-01T17:52:03;21.80;1.00
12922;DHT22;6528;48.086;16.282;2023-03-01T17:54:30;21.80;1.00
12922;DHT22;6528;48.086;16.282;2023-03-01T17:56:59;21.80;1.00
12922;DHT22;6528;48.086;16.282;2023-03-01T17:59:26;21.80;1.00
12922;DHT22;6528;48.086;16.282;2023-03-01T18:01:59;21.80;1.00
12922;DHT22;6528;48.086;16.282;2023-03-01T18:04:27;21.80;1.00
12922;DHT22;6528;48.086;16.282;2023-03-01T18:06:54;21.80;1.00
12922;DHT22;6528;48.086;16.282;2023-03-01T18:09:21;21.80;1.00
12922;DHT22;6528;48.086;16.282;2023-03-01T18:11:48;21.80;1.00
12922;DHT22;6528;48.086;16.282;2023-03-01T18:14:15;21.80;1.00
12922;DHT22;6528;48.086;16.282;2023-03-01T18:16:42;21.80;1.00
12922;DHT22;6528;48.086;16.282;2023-03-01T18:19:10;21.80;1.00
12922;DHT22;6528;48.086;16.282;2023-03-01T18:21:37;21.80;1.00
12922;DHT22;6528;48.086;16.282;2023-03-01T18:24:04;21.80;1.00
12922;DHT22;6528;48.086;16.282;2023-03-01T18:26:31;21.80;1.00
12922;DHT22;6528;48.086;16.282;2023-03-01T18:28:58;21.70;1.00
12922;DHT22;6528;48.086;16.282;2023-03-01T18:31:26;21.80;1.00
12922;DHT22;6528;48.086;16.282;2023-03-01T18:33:54;21.70;1.00
12922;DHT22;6528;48.086;16.282;2023-03-01T18:36:29;21.80;1.00
12922;DHT22;6528;48.086;16.282;2023-03-01T18:38:56;21.80;1.00
12922;DHT22;6528;48.086;16.282;2023-03-01T18:41:24;21.80;1.00
12922;DHT22;6528;48.086;16.282;2023-03-01T18:43:52;21.70;1.00